createdAt,value
2022-10-05T00:00:52.015Z,1011.48
2022-10-05T00:01:52.030Z,1011.49
2022-10-05T00:02:51.977Z,1011.45
2022-10-05T00:03:52.012Z,1011.41
2022-10-05T00:04:52.064Z,1011.37
2022-10-05T00:05:51.928Z,1011.40
2022-10-05T00:06:51.908Z,1011.36
2022-10-05T00:07:51.890Z,1011.34
2022-10-05T00:08:51.870Z,1011.30
2022-10-05T00:09:51.847Z,1011.32
2022-10-05T00:10:51.835Z,1011.28
2022-10-05T00:11:51.820Z,1011.24
2022-10-05T00:12:51.801Z,1011.22
2022-10-05T00:13:51.779Z,1011.20
2022-10-05T00:14:51.763Z,1011.20
2022-10-05T00:15:51.744Z,1011.19
2022-10-05T00:16:52.003Z,1011.18
2022-10-05T00:17:51.710Z,1011.20
2022-10-05T00:18:51.692Z,1011.16
2022-10-05T00:19:51.670Z,1011.13
2022-10-05T00:20:51.678Z,1011.11
2022-10-05T00:21:51.639Z,1011.08
2022-10-05T00:22:51.622Z,1011.12
2022-10-05T00:23:51.599Z,1011.20
2022-10-05T00:24:51.584Z,1011.14
2022-10-05T00:25:51.564Z,1011.11
2022-10-05T00:26:56.883Z,1011.12
2022-10-05T00:27:51.529Z,1011.07
2022-10-05T00:28:51.510Z,1011.08
2022-10-05T00:29:51.494Z,1011.07
2022-10-05T00:30:51.471Z,1011.07
2022-10-05T00:31:51.502Z,1011.08
2022-10-05T00:32:53.894Z,1011.07
2022-10-05T00:33:51.421Z,1011.08
2022-10-05T00:34:51.399Z,1011.12
2022-10-05T00:35:51.385Z,1011.12
2022-10-05T00:36:51.391Z,1011.16
2022-10-05T00:37:51.349Z,1011.12
2022-10-05T00:38:51.329Z,1011.09
2022-10-05T00:39:51.319Z,1011.08
2022-10-05T00:40:51.295Z,1011.17
2022-10-05T00:41:51.276Z,1011.11
2022-10-05T00:42:51.260Z,1011.12
2022-10-05T00:43:51.242Z,1011.16
2022-10-05T00:44:51.230Z,1011.11
2022-10-05T00:45:51.272Z,1011.11
2022-10-05T00:46:51.192Z,1011.09
2022-10-05T00:47:51.168Z,1011.13
2022-10-05T00:48:51.152Z,1011.15
2022-10-05T00:49:51.135Z,1011.14
2022-10-05T00:50:51.119Z,1011.15
2022-10-05T00:51:51.103Z,1011.08
2022-10-05T00:52:51.103Z,1011.12
2022-10-05T00:53:51.058Z,1011.09
2022-10-05T00:54:51.039Z,1011.07
2022-10-05T00:55:51.030Z,1011.09
2022-10-05T00:56:51.006Z,1011.08
2022-10-05T00:57:50.987Z,1011.07
2022-10-05T00:58:50.969Z,1011.04
2022-10-05T00:59:50.951Z,1011.06
2022-10-05T01:00:50.979Z,1011.02
2022-10-05T01:01:50.962Z,1011.02
2022-10-05T01:02:51.055Z,1010.98
2022-10-05T01:03:50.877Z,1010.97
2022-10-05T01:04:50.861Z,1010.98
2022-10-05T01:05:50.860Z,1010.94
2022-10-05T01:06:50.828Z,1010.94
2022-10-05T01:07:50.812Z,1010.90
2022-10-05T01:08:50.838Z,1010.90
2022-10-05T01:09:50.770Z,1010.94
2022-10-05T01:10:50.755Z,1010.94
2022-10-05T01:11:50.735Z,1010.95
2022-10-05T01:12:50.717Z,1010.96
2022-10-05T01:13:50.700Z,1010.96
2022-10-05T01:14:50.678Z,1010.93
2022-10-05T01:15:50.664Z,1010.94
2022-10-05T01:16:51.082Z,1010.92
2022-10-05T01:17:50.625Z,1010.87
2022-10-05T01:18:50.608Z,1010.88
2022-10-05T01:19:50.590Z,1010.86
2022-10-05T01:20:50.570Z,1010.84
2022-10-05T01:21:50.553Z,1010.85
2022-10-05T01:22:50.545Z,1010.85
2022-10-05T01:23:50.518Z,1010.82
2022-10-05T01:24:50.521Z,1010.83
2022-10-05T01:25:50.483Z,1010.81
2022-10-05T01:26:50.468Z,1010.80
2022-10-05T01:27:50.444Z,1010.78
2022-10-05T01:28:50.433Z,1010.74
2022-10-05T01:29:50.410Z,1010.73
2022-10-05T01:30:50.394Z,1010.74
2022-10-05T01:31:50.399Z,1010.72
2022-10-05T01:32:50.356Z,1010.75
2022-10-05T01:33:50.341Z,1010.75
2022-10-05T01:34:50.320Z,1010.78
2022-10-05T01:35:50.303Z,1010.75
2022-10-05T01:36:50.280Z,1010.79
2022-10-05T01:37:50.270Z,1010.79
2022-10-05T01:38:50.248Z,1010.76
2022-10-05T01:39:50.230Z,1010.79
2022-10-05T01:40:50.231Z,1010.83
2022-10-05T01:41:50.198Z,1010.77
2022-10-05T01:42:50.178Z,1010.76
2022-10-05T01:43:50.154Z,1010.75
2022-10-05T01:44:50.145Z,1010.76
2022-10-05T01:45:50.181Z,1010.71
2022-10-05T01:46:50.103Z,1010.69
2022-10-05T01:47:50.085Z,1010.67
2022-10-05T01:48:50.074Z,1010.66
2022-10-05T01:49:50.051Z,1010.62
2022-10-05T01:50:50.030Z,1010.62
2022-10-05T01:51:50.011Z,1010.60
2022-10-05T01:52:49.993Z,1010.56
2022-10-05T01:53:49.976Z,1010.55
2022-10-05T01:54:49.956Z,1010.56
2022-10-05T01:55:49.941Z,1010.53
2022-10-05T01:56:49.942Z,1010.55
2022-10-05T01:57:49.905Z,1010.54
2022-10-05T01:58:49.886Z,1010.52
2022-10-05T01:59:49.869Z,1010.54
2022-10-05T02:00:49.913Z,1010.51
2022-10-05T02:01:49.891Z,1010.54
2022-10-05T02:02:49.813Z,1010.51
2022-10-05T02:03:49.794Z,1010.57
2022-10-05T02:05:02.056Z,1010.54
2022-10-05T02:05:49.756Z,1010.58
2022-10-05T02:06:49.818Z,1010.59
2022-10-05T02:07:49.721Z,1010.58
2022-10-05T02:08:49.700Z,1010.60
2022-10-05T02:09:49.689Z,1010.60
2022-10-05T02:10:49.668Z,1010.57
2022-10-05T02:11:49.652Z,1010.59
2022-10-05T02:12:49.652Z,1010.58
2022-10-05T02:13:49.611Z,1010.61
2022-10-05T02:14:49.592Z,1010.59
2022-10-05T02:15:49.702Z,1010.57
2022-10-05T02:16:49.899Z,1010.57
2022-10-05T02:17:49.547Z,1010.54
2022-10-05T02:18:49.531Z,1010.53
2022-10-05T02:19:49.502Z,1010.54
2022-10-05T02:20:49.485Z,1010.54
2022-10-05T02:21:49.466Z,1010.54
2022-10-05T02:22:49.451Z,1010.53
2022-10-05T02:23:49.431Z,1010.53
2022-10-05T02:24:49.412Z,1010.57
2022-10-05T02:25:49.397Z,1010.58
2022-10-05T02:26:49.624Z,1010.56
2022-10-05T02:27:49.357Z,1010.61
2022-10-05T02:28:49.365Z,1010.59
2022-10-05T02:29:49.328Z,1010.64
2022-10-05T02:30:49.305Z,1010.63
2022-10-05T02:31:49.346Z,1010.60
2022-10-05T02:32:49.271Z,1010.61
2022-10-05T02:33:49.253Z,1010.58
2022-10-05T02:34:49.232Z,1010.59
2022-10-05T02:35:49.215Z,1010.54
2022-10-05T02:36:49.419Z,1010.51
2022-10-05T02:37:49.184Z,1010.48
2022-10-05T02:38:49.160Z,1010.46
2022-10-05T02:39:49.153Z,1010.41
2022-10-05T02:40:49.132Z,1010.41
2022-10-05T02:41:49.111Z,1010.40
2022-10-05T02:42:49.087Z,1010.37
2022-10-05T02:43:49.069Z,1010.33
2022-10-05T02:44:49.071Z,1010.31
2022-10-05T02:45:49.101Z,1010.29
2022-10-05T02:46:52.012Z,1010.24
2022-10-05T02:47:49.011Z,1010.21
2022-10-05T02:48:48.980Z,1010.21
2022-10-05T02:49:48.962Z,1010.17
2022-10-05T02:50:48.939Z,1010.18
2022-10-05T02:51:48.922Z,1010.13
2022-10-05T02:52:48.910Z,1010.14
2022-10-05T02:53:48.888Z,1010.11
2022-10-05T02:54:48.873Z,1010.09
2022-10-05T02:55:48.846Z,1010.07
2022-10-05T02:56:49.366Z,1010.06
2022-10-05T02:57:48.817Z,1010.01
2022-10-05T02:58:48.796Z,1009.99
2022-10-05T02:59:48.781Z,1009.97
2022-10-05T03:00:48.786Z,1009.91
2022-10-05T03:01:48.788Z,1009.92
2022-10-05T03:02:48.723Z,1009.93
2022-10-05T03:03:48.701Z,1009.95
2022-10-05T03:04:48.686Z,1009.92
2022-10-05T03:05:48.674Z,1009.92
2022-10-05T03:06:48.936Z,1009.91
2022-10-05T03:07:48.629Z,1009.93
2022-10-05T03:08:48.608Z,1009.92
2022-10-05T03:09:48.591Z,1009.92
2022-10-05T03:10:48.573Z,1009.90
2022-10-05T03:11:48.565Z,1009.88
2022-10-05T03:12:48.540Z,1009.89
2022-10-05T03:13:48.526Z,1009.84
2022-10-05T03:14:48.501Z,1009.83
2022-10-05T03:15:48.536Z,1009.85
2022-10-05T03:16:48.880Z,1009.80
2022-10-05T03:17:48.451Z,1009.85
2022-10-05T03:18:48.431Z,1009.84
2022-10-05T03:19:48.410Z,1009.82
2022-10-05T03:20:48.390Z,1009.79
2022-10-05T03:21:48.383Z,1009.80
2022-10-05T03:22:48.357Z,1009.79
2022-10-05T03:23:48.333Z,1009.77
2022-10-05T03:24:48.316Z,1009.68
2022-10-05T03:25:48.299Z,1009.67
2022-10-05T03:26:48.694Z,1009.63
2022-10-05T03:27:48.261Z,1009.63
2022-10-05T03:28:48.243Z,1009.60
2022-10-05T03:29:48.222Z,1009.60
2022-10-05T03:30:48.280Z,1009.60
2022-10-05T03:31:48.187Z,1009.60
2022-10-05T03:32:48.186Z,1009.56
2022-10-05T03:33:48.151Z,1009.54
2022-10-05T03:34:48.136Z,1009.51
2022-10-05T03:35:48.116Z,1009.47
2022-10-05T03:36:48.306Z,1009.47
2022-10-05T03:37:48.080Z,1009.48
2022-10-05T03:38:48.062Z,1009.46
2022-10-05T03:39:48.039Z,1009.48
2022-10-05T03:40:48.023Z,1009.49
2022-10-05T03:41:48.012Z,1009.46
2022-10-05T03:42:47.986Z,1009.50
2022-10-05T03:43:47.968Z,1009.49
2022-10-05T03:44:47.946Z,1009.47
2022-10-05T03:45:47.950Z,1009.43
2022-10-05T03:46:48.300Z,1009.42
2022-10-05T03:47:47.898Z,1009.45
2022-10-05T03:48:47.892Z,1009.44
2022-10-05T03:49:47.865Z,1009.41
2022-10-05T03:50:47.837Z,1009.41
2022-10-05T03:51:47.823Z,1009.43
2022-10-05T03:52:47.796Z,1009.39
2022-10-05T03:53:47.783Z,1009.39
2022-10-05T03:54:47.765Z,1009.38
2022-10-05T03:55:47.748Z,1009.40
2022-10-05T03:56:48.104Z,1009.39
2022-10-05T03:57:47.706Z,1009.36
2022-10-05T03:58:47.689Z,1009.35
2022-10-05T03:59:47.672Z,1009.35
2022-10-05T04:00:47.652Z,1009.33
2022-10-05T04:01:47.698Z,1009.30
2022-10-05T04:02:47.677Z,1009.33
2022-10-05T04:03:47.598Z,1009.26
2022-10-05T04:04:47.600Z,1009.22
2022-10-05T04:05:47.564Z,1009.23
2022-10-05T04:06:47.849Z,1009.25
2022-10-05T04:07:47.532Z,1009.27
2022-10-05T04:08:48.185Z,1009.28
2022-10-05T04:09:47.485Z,1009.21
2022-10-05T04:10:47.465Z,1009.25
2022-10-05T04:11:47.453Z,1009.21
2022-10-05T04:12:47.428Z,1009.18
2022-10-05T04:13:47.412Z,1009.18
2022-10-05T04:14:47.392Z,1009.22
2022-10-05T04:15:47.421Z,1009.21
2022-10-05T04:16:47.790Z,1009.24
2022-10-05T04:17:47.335Z,1009.25
2022-10-05T04:18:47.318Z,1009.29
2022-10-05T04:19:47.305Z,1009.28
2022-10-05T04:20:47.302Z,1009.28
2022-10-05T04:21:47.260Z,1009.29
2022-10-05T04:22:47.241Z,1009.30
2022-10-05T04:23:47.225Z,1009.32
2022-10-05T04:24:47.205Z,1009.35
2022-10-05T04:25:47.189Z,1009.34
2022-10-05T04:26:47.600Z,1009.41
2022-10-05T04:27:47.152Z,1009.37
2022-10-05T04:28:47.217Z,1009.41
2022-10-05T04:29:47.114Z,1009.42
2022-10-05T04:30:47.093Z,1009.43
2022-10-05T04:31:47.167Z,1009.45
2022-10-05T04:32:47.059Z,1009.49
2022-10-05T04:33:47.039Z,1009.48
2022-10-05T04:34:47.022Z,1009.50
2022-10-05T04:35:47.001Z,1009.47
2022-10-05T04:36:47.428Z,1009.51
2022-10-05T04:37:46.980Z,1009.50
2022-10-05T04:38:46.945Z,1009.45
2022-10-05T04:39:46.928Z,1009.47
2022-10-05T04:40:46.913Z,1009.46
2022-10-05T04:41:46.895Z,1009.45
2022-10-05T04:42:46.871Z,1009.45
2022-10-05T04:43:46.862Z,1009.45
2022-10-05T04:44:46.840Z,1009.48
2022-10-05T04:45:46.820Z,1009.42
2022-10-05T04:46:47.184Z,1009.44
2022-10-05T04:47:46.781Z,1009.36
2022-10-05T04:48:46.761Z,1009.35
2022-10-05T04:49:46.743Z,1009.38
2022-10-05T04:50:46.722Z,1009.35
2022-10-05T04:51:51.021Z,1009.40
2022-10-05T04:52:46.752Z,1009.38
2022-10-05T04:53:46.671Z,1009.37
2022-10-05T04:54:46.650Z,1009.37
2022-10-05T04:55:46.637Z,1009.38
2022-10-05T04:56:47.007Z,1009.36
2022-10-05T04:57:46.597Z,1009.38
2022-10-05T04:58:46.579Z,1009.39
2022-10-05T04:59:46.562Z,1009.38
2022-10-05T05:00:46.613Z,1009.39
2022-10-05T05:01:46.525Z,1009.43
2022-10-05T05:02:46.510Z,1009.42
2022-10-05T05:03:46.547Z,1009.39
2022-10-05T05:04:51.499Z,1009.43
2022-10-05T05:06:05.358Z,1009.42
2022-10-05T05:06:46.805Z,1009.42
2022-10-05T05:07:46.423Z,1009.38
2022-10-05T05:08:46.415Z,1009.34
2022-10-05T05:09:46.375Z,1009.37
2022-10-05T05:10:46.354Z,1009.35
2022-10-05T05:11:46.341Z,1009.39
2022-10-05T05:12:46.320Z,1009.37
2022-10-05T05:13:46.303Z,1009.37
2022-10-05T05:14:46.281Z,1009.35
2022-10-05T05:15:46.290Z,1009.37
2022-10-05T05:16:46.529Z,1009.32
2022-10-05T05:17:46.234Z,1009.30
2022-10-05T05:18:46.216Z,1009.28
2022-10-05T05:19:46.192Z,1009.28
2022-10-05T05:20:46.174Z,1009.29
2022-10-05T05:21:46.158Z,1009.27
2022-10-05T05:22:46.138Z,1009.26
2022-10-05T05:23:46.119Z,1009.27
2022-10-05T05:24:46.142Z,1009.26
2022-10-05T05:25:46.084Z,1009.25
2022-10-05T05:26:46.439Z,1009.29
2022-10-05T05:27:46.042Z,1009.24
2022-10-05T05:28:46.030Z,1009.33
2022-10-05T05:29:46.010Z,1009.32
2022-10-05T05:30:45.991Z,1009.33
2022-10-05T05:31:46.031Z,1009.30
2022-10-05T05:32:45.950Z,1009.30
2022-10-05T05:33:45.935Z,1009.30
2022-10-05T05:34:45.917Z,1009.30
2022-10-05T05:35:45.896Z,1009.34
2022-10-05T05:36:46.168Z,1009.36
2022-10-05T05:37:45.862Z,1009.34
2022-10-05T05:38:45.840Z,1009.35
2022-10-05T05:39:45.824Z,1009.38
2022-10-05T05:40:45.869Z,1009.36
2022-10-05T05:41:45.786Z,1009.36
2022-10-05T05:42:45.768Z,1009.34
2022-10-05T05:43:45.750Z,1009.31
2022-10-05T05:44:45.738Z,1009.32
2022-10-05T05:45:45.713Z,1009.29
2022-10-05T05:47:03.031Z,1009.35
2022-10-05T05:47:45.777Z,1009.29
2022-10-05T05:48:45.662Z,1009.36
2022-10-05T05:49:45.646Z,1009.38
2022-10-05T05:50:45.621Z,1009.39
2022-10-05T05:51:45.606Z,1009.38
2022-10-05T05:52:45.583Z,1009.40
2022-10-05T05:53:45.575Z,1009.37
2022-10-05T05:54:45.547Z,1009.39
2022-10-05T05:55:45.537Z,1009.40
2022-10-05T05:56:45.935Z,1009.36
2022-10-05T05:57:45.501Z,1009.39
2022-10-05T05:58:45.481Z,1009.36
2022-10-05T05:59:45.465Z,1009.43
2022-10-05T06:00:45.442Z,1009.43
2022-10-05T06:01:45.648Z,1009.43
2022-10-05T06:02:45.663Z,1009.45
2022-10-05T06:03:45.388Z,1009.37
2022-10-05T06:04:45.381Z,1009.36
2022-10-05T06:05:45.363Z,1009.41
2022-10-05T06:06:45.706Z,1009.37
2022-10-05T06:07:45.316Z,1009.42
2022-10-05T06:08:45.299Z,1009.42
2022-10-05T06:09:45.287Z,1009.43
2022-10-05T06:10:45.260Z,1009.36
2022-10-05T06:11:45.247Z,1009.37
2022-10-05T06:12:45.249Z,1009.36
2022-10-05T06:13:45.208Z,1009.40
2022-10-05T06:14:45.198Z,1009.34
2022-10-05T06:15:45.170Z,1009.35
2022-10-05T06:16:45.702Z,1009.36
2022-10-05T06:17:45.141Z,1009.33
2022-10-05T06:18:45.118Z,1009.38
2022-10-05T06:19:45.098Z,1009.34
2022-10-05T06:20:45.078Z,1009.36
2022-10-05T06:21:45.068Z,1009.31
2022-10-05T06:22:45.045Z,1009.30
2022-10-05T06:23:45.028Z,1009.33
2022-10-05T06:24:45.008Z,1009.30
2022-10-05T06:25:44.994Z,1009.30
2022-10-05T06:26:45.295Z,1009.32
2022-10-05T06:27:44.956Z,1009.30
2022-10-05T06:28:44.973Z,1009.31
2022-10-05T06:29:44.923Z,1009.31
2022-10-05T06:30:44.898Z,1009.36
2022-10-05T06:31:44.973Z,1009.35
2022-10-05T06:32:44.880Z,1009.43
2022-10-05T06:33:44.844Z,1009.36
2022-10-05T06:34:44.833Z,1009.33
2022-10-05T06:35:44.810Z,1009.35
2022-10-05T06:36:45.093Z,1009.34
2022-10-05T06:37:44.782Z,1009.35
2022-10-05T06:38:44.756Z,1009.37
2022-10-05T06:39:44.742Z,1009.37
2022-10-05T06:40:44.728Z,1009.37
2022-10-05T06:41:44.705Z,1009.37
2022-10-05T06:42:44.682Z,1009.42
2022-10-05T06:43:44.670Z,1009.38
2022-10-05T06:44:44.772Z,1009.40
2022-10-05T06:45:44.675Z,1009.40
2022-10-05T06:46:44.943Z,1009.35
2022-10-05T06:47:44.596Z,1009.41
2022-10-05T06:48:44.581Z,1009.38
2022-10-05T06:49:44.562Z,1009.35
2022-10-05T06:50:44.548Z,1009.37
2022-10-05T06:51:44.526Z,1009.36
2022-10-05T06:52:44.511Z,1009.38
2022-10-05T06:53:44.489Z,1009.34
2022-10-05T06:54:44.471Z,1009.38
2022-10-05T06:55:44.457Z,1009.38
2022-10-05T06:56:44.734Z,1009.39
2022-10-05T06:57:44.423Z,1009.37
2022-10-05T06:58:44.398Z,1009.37
2022-10-05T06:59:44.385Z,1009.41
2022-10-05T07:00:44.526Z,1009.36
2022-10-05T07:01:44.653Z,1009.41
2022-10-05T07:02:44.332Z,1009.35
2022-10-05T07:03:44.311Z,1009.36
2022-10-05T07:04:44.293Z,1009.37
2022-10-05T07:05:44.278Z,1009.40
2022-10-05T07:06:44.258Z,1009.37
2022-10-05T07:07:44.244Z,1009.39
2022-10-05T07:08:44.224Z,1009.34
2022-10-05T07:09:44.206Z,1009.32
2022-10-05T07:10:44.186Z,1009.36
2022-10-05T07:11:44.548Z,1009.28
2022-10-05T07:12:44.155Z,1009.37
2022-10-05T07:13:44.137Z,1009.32
2022-10-05T07:14:44.118Z,1009.31
2022-10-05T07:15:44.104Z,1009.33
2022-10-05T07:16:44.182Z,1009.36
2022-10-05T07:17:44.066Z,1009.33
2022-10-05T07:18:44.045Z,1009.35
2022-10-05T07:19:44.028Z,1009.39
2022-10-05T07:20:48.884Z,1009.35
2022-10-05T07:21:44.288Z,1009.35
2022-10-05T07:22:43.974Z,1009.36
2022-10-05T07:23:43.962Z,1009.32
2022-10-05T07:24:43.938Z,1009.32
2022-10-05T07:25:43.922Z,1009.35
2022-10-05T07:26:44.363Z,1009.32
2022-10-05T07:27:46.201Z,1009.34
2022-10-05T07:28:43.969Z,1009.31
2022-10-05T07:29:43.856Z,1009.40
2022-10-05T07:30:43.915Z,1009.37
2022-10-05T07:31:43.818Z,1009.39
2022-10-05T07:32:43.819Z,1009.38
2022-10-05T07:33:43.782Z,1009.38
2022-10-05T07:34:43.765Z,1009.42
2022-10-05T07:35:43.751Z,1009.40
2022-10-05T07:36:44.118Z,1009.42
2022-10-05T07:37:43.715Z,1009.45
2022-10-05T07:38:43.694Z,1009.41
2022-10-05T07:39:59.702Z,1009.42
2022-10-05T07:40:43.660Z,1009.49
2022-10-05T07:41:43.648Z,1009.50
2022-10-05T07:42:50.489Z,1009.48
2022-10-05T07:44:02.426Z,1009.45
2022-10-05T07:44:43.592Z,1009.47
2022-10-05T07:45:43.655Z,1009.48
2022-10-05T07:46:43.639Z,1009.51
2022-10-05T07:47:43.546Z,1009.53
2022-10-05T07:48:43.541Z,1009.51
2022-10-05T07:49:43.502Z,1009.54
2022-10-05T07:50:43.486Z,1009.59
2022-10-05T07:51:43.462Z,1009.56
2022-10-05T07:52:43.452Z,1009.53
2022-10-05T07:53:43.435Z,1009.58
2022-10-05T07:54:43.413Z,1009.54
2022-10-05T07:55:43.395Z,1009.53
2022-10-05T07:56:43.473Z,1009.57
2022-10-05T07:57:43.362Z,1009.56
2022-10-05T07:58:43.342Z,1009.59
2022-10-05T07:59:43.329Z,1009.59
2022-10-05T08:00:43.310Z,1009.59
2022-10-05T08:01:43.358Z,1009.62
2022-10-05T08:02:43.358Z,1009.72
2022-10-05T08:03:43.257Z,1009.72
2022-10-05T08:04:43.263Z,1009.69
2022-10-05T08:05:43.224Z,1009.73
2022-10-05T08:06:43.295Z,1009.78
2022-10-05T08:07:43.199Z,1009.73
2022-10-05T08:08:43.183Z,1009.76
2022-10-05T08:09:43.156Z,1009.77
2022-10-05T08:10:43.139Z,1009.77
2022-10-05T08:11:43.446Z,1009.76
2022-10-05T08:12:43.101Z,1009.82
2022-10-05T08:13:43.084Z,1009.80
2022-10-05T08:14:43.066Z,1009.82
2022-10-05T08:15:43.190Z,1009.76
2022-10-05T08:16:43.033Z,1009.77
2022-10-05T08:17:43.014Z,1009.82
2022-10-05T08:18:42.997Z,1009.80
2022-10-05T08:19:42.985Z,1009.83
2022-10-05T08:20:42.990Z,1009.80
2022-10-05T08:21:42.948Z,1009.79
2022-10-05T08:22:42.928Z,1009.68
2022-10-05T08:23:42.911Z,1009.79
2022-10-05T08:24:42.892Z,1009.77
2022-10-05T08:25:42.884Z,1009.73
2022-10-05T08:26:42.864Z,1009.70
2022-10-05T08:27:42.847Z,1009.68
2022-10-05T08:28:42.831Z,1009.68
2022-10-05T08:29:42.812Z,1009.70
2022-10-05T08:30:42.791Z,1009.68
2022-10-05T08:31:42.777Z,1009.68
2022-10-05T08:32:42.757Z,1009.66
2022-10-05T08:33:42.740Z,1009.63
2022-10-05T08:34:42.721Z,1009.63
2022-10-05T08:35:42.707Z,1009.59
2022-10-05T08:36:42.707Z,1009.63
2022-10-05T08:37:42.669Z,1009.67
2022-10-05T08:38:42.649Z,1009.59
2022-10-05T08:39:42.633Z,1009.65
2022-10-05T08:40:42.618Z,1009.59
2022-10-05T08:41:42.604Z,1009.61
2022-10-05T08:42:42.581Z,1009.60
2022-10-05T08:43:42.566Z,1009.59
2022-10-05T08:44:42.547Z,1009.59
2022-10-05T08:45:42.583Z,1009.58
2022-10-05T08:46:42.520Z,1009.58
2022-10-05T08:47:42.501Z,1009.57
2022-10-05T08:48:42.477Z,1009.62
2022-10-05T08:49:42.466Z,1009.62
2022-10-05T08:50:42.443Z,1009.64
2022-10-05T08:51:42.427Z,1009.58
2022-10-05T08:52:42.432Z,1009.60
2022-10-05T08:53:42.394Z,1009.60
2022-10-05T08:54:42.378Z,1009.60
2022-10-05T08:55:42.358Z,1009.61
2022-10-05T08:56:42.344Z,1009.55
2022-10-05T08:57:42.325Z,1009.62
2022-10-05T08:58:42.305Z,1009.57
2022-10-05T08:59:42.290Z,1009.62
2022-10-05T09:00:42.276Z,1009.59
2022-10-05T09:01:42.325Z,1009.55
2022-10-05T09:02:42.302Z,1009.60
2022-10-05T09:03:42.228Z,1009.58
2022-10-05T09:04:42.207Z,1009.59
2022-10-05T09:05:42.187Z,1009.58
2022-10-05T09:06:42.179Z,1009.58
2022-10-05T09:07:42.157Z,1009.57
2022-10-05T09:08:42.164Z,1009.53
2022-10-05T09:09:42.124Z,1009.56
2022-10-05T09:10:42.107Z,1009.61
2022-10-05T09:11:42.099Z,1009.55
2022-10-05T09:12:42.071Z,1009.54
2022-10-05T09:13:42.056Z,1009.54
2022-10-05T09:14:42.041Z,1009.49
2022-10-05T09:15:42.075Z,1009.51
2022-10-05T09:16:42.010Z,1009.50
2022-10-05T09:17:41.992Z,1009.53
2022-10-05T09:18:41.972Z,1009.49
2022-10-05T09:19:41.959Z,1009.51
2022-10-05T09:20:41.941Z,1009.51
2022-10-05T09:21:41.931Z,1009.54
2022-10-05T09:22:41.912Z,1009.53
2022-10-05T09:23:41.896Z,1009.50
2022-10-05T09:24:46.206Z,1009.55
2022-10-05T09:25:41.859Z,1009.52
2022-10-05T09:26:41.839Z,1009.45
2022-10-05T09:27:41.824Z,1009.51
2022-10-05T09:28:41.882Z,1009.55
2022-10-05T09:29:41.792Z,1009.49
2022-10-05T09:30:41.842Z,1009.57
2022-10-05T09:31:41.760Z,1009.53
2022-10-05T09:32:41.742Z,1009.53
2022-10-05T09:33:41.728Z,1009.54
2022-10-05T09:34:41.709Z,1009.49
2022-10-05T09:35:41.690Z,1009.51
2022-10-05T09:36:41.676Z,1009.47
2022-10-05T09:37:41.656Z,1009.44
2022-10-05T09:38:41.644Z,1009.48
2022-10-05T09:39:41.630Z,1009.45
2022-10-05T09:40:41.634Z,1009.45
2022-10-05T09:41:41.593Z,1009.44
2022-10-05T09:42:41.576Z,1009.40
2022-10-05T09:43:41.563Z,1009.40
2022-10-05T09:44:41.546Z,1009.44
2022-10-05T09:45:41.533Z,1009.42
2022-10-05T09:46:41.547Z,1009.38
2022-10-05T09:47:41.492Z,1009.41
2022-10-05T09:48:41.479Z,1009.40
2022-10-05T09:49:41.462Z,1009.37
2022-10-05T09:50:41.447Z,1009.40
2022-10-05T09:51:41.432Z,1009.38
2022-10-05T09:52:41.414Z,1009.41
2022-10-05T09:53:41.397Z,1009.40
2022-10-05T09:54:41.401Z,1009.35
2022-10-05T09:55:41.366Z,1009.25
2022-10-05T09:56:41.369Z,1009.26
2022-10-05T09:57:41.339Z,1009.27
2022-10-05T09:58:41.324Z,1009.27
2022-10-05T09:59:41.303Z,1009.30
2022-10-05T10:00:41.289Z,1009.27
2022-10-05T10:01:41.323Z,1009.30
2022-10-05T10:02:41.441Z,1009.26
2022-10-05T10:03:41.241Z,1009.30
2022-10-05T10:04:41.225Z,1009.31
2022-10-05T10:05:41.204Z,1009.27
2022-10-05T10:06:41.187Z,1009.22
2022-10-05T10:07:41.173Z,1009.25
2022-10-05T10:08:41.168Z,1009.25
2022-10-05T10:09:41.149Z,1009.19
2022-10-05T10:10:41.122Z,1009.17
2022-10-05T10:11:41.107Z,1009.22
2022-10-05T10:12:41.117Z,1009.19
2022-10-05T10:13:41.083Z,1009.21
2022-10-05T10:14:41.082Z,1009.18
2022-10-05T10:15:41.069Z,1009.15
2022-10-05T10:16:41.028Z,1009.21
2022-10-05T10:17:41.014Z,1009.18
2022-10-05T10:18:40.994Z,1009.13
2022-10-05T10:19:40.983Z,1009.17
2022-10-05T10:20:40.964Z,1009.17
2022-10-05T10:21:40.953Z,1009.15
2022-10-05T10:22:43.209Z,1009.12
2022-10-05T10:23:40.918Z,1009.10
2022-10-05T10:24:40.908Z,1009.11
2022-10-05T10:25:40.890Z,1009.12
2022-10-05T10:26:40.869Z,1009.09
2022-10-05T10:27:40.856Z,1009.07
2022-10-05T10:28:40.953Z,1009.05
2022-10-05T10:29:40.826Z,1009.05
2022-10-05T10:30:40.809Z,1009.04
2022-10-05T10:31:40.789Z,1009.05
2022-10-05T10:32:40.778Z,1009.05
2022-10-05T10:33:40.758Z,1009.02
2022-10-05T10:34:40.745Z,1009.04
2022-10-05T10:35:40.728Z,1009.03
2022-10-05T10:36:40.717Z,1009.05
2022-10-05T10:37:40.705Z,1009.03
2022-10-05T10:38:40.685Z,1009.01
2022-10-05T10:39:40.669Z,1009.15
2022-10-05T10:40:40.661Z,1009.05
2022-10-05T10:41:40.639Z,1009.00
2022-10-05T10:42:40.622Z,1009.06
2022-10-05T10:43:40.614Z,1009.05
2022-10-05T10:44:40.625Z,1008.99
2022-10-05T10:45:40.575Z,1009.02
2022-10-05T10:46:40.735Z,1008.98
2022-10-05T10:47:40.543Z,1008.95
2022-10-05T10:48:40.553Z,1009.09
2022-10-05T10:49:40.514Z,1008.99
2022-10-05T10:50:40.498Z,1008.98
2022-10-05T10:51:40.488Z,1009.07
2022-10-05T10:52:40.468Z,1009.07
2022-10-05T10:53:40.461Z,1009.05
2022-10-05T10:54:40.443Z,1008.96
2022-10-05T10:55:40.418Z,1009.00
2022-10-05T10:56:40.406Z,1008.94
2022-10-05T10:57:40.391Z,1008.92
2022-10-05T10:58:40.381Z,1008.92
2022-10-05T10:59:40.356Z,1008.95
2022-10-05T11:00:40.368Z,1008.94
2022-10-05T11:01:40.382Z,1008.93
2022-10-05T11:02:40.391Z,1008.91
2022-10-05T11:03:40.298Z,1008.94
2022-10-05T11:04:40.285Z,1008.92
2022-10-05T11:05:41.049Z,1008.89
2022-10-05T11:06:40.262Z,1008.92
2022-10-05T11:07:40.252Z,1008.98
2022-10-05T11:08:40.224Z,1009.00
2022-10-05T11:09:40.205Z,1008.91
2022-10-05T11:10:40.190Z,1008.86
2022-10-05T11:11:40.174Z,1008.83
2022-10-05T11:12:40.161Z,1008.82
2022-10-05T11:13:40.147Z,1008.86
2022-10-05T11:14:40.129Z,1008.83
2022-10-05T11:15:40.126Z,1008.85
2022-10-05T11:16:40.119Z,1008.78
2022-10-05T11:17:40.087Z,1008.77
2022-10-05T11:18:40.071Z,1008.76
2022-10-05T11:19:59.223Z,1008.80
2022-10-05T11:20:40.042Z,1008.83
2022-10-05T11:21:40.023Z,1008.75
2022-10-05T11:22:40.012Z,1008.74
2022-10-05T11:23:40.000Z,1008.73
2022-10-05T11:24:39.989Z,1008.82
2022-10-05T11:25:39.968Z,1008.73
2022-10-05T11:26:39.964Z,1008.67
2022-10-05T11:27:39.934Z,1008.69
2022-10-05T11:28:40.016Z,1008.70
2022-10-05T11:29:39.906Z,1008.72
2022-10-05T11:30:39.894Z,1008.69
2022-10-05T11:31:39.929Z,1008.53
2022-10-05T11:32:39.885Z,1008.58
2022-10-05T11:33:39.854Z,1008.59
2022-10-05T11:34:39.836Z,1008.54
2022-10-05T11:35:39.821Z,1008.53
2022-10-05T11:36:39.809Z,1008.52
2022-10-05T11:37:39.798Z,1008.49
2022-10-05T11:38:39.783Z,1008.47
2022-10-05T11:39:39.765Z,1008.51
2022-10-05T11:40:39.752Z,1008.41
2022-10-05T11:41:39.737Z,1008.40
2022-10-05T11:42:39.727Z,1008.33
2022-10-05T11:43:39.718Z,1008.37
2022-10-05T11:44:39.714Z,1008.60
2022-10-05T11:45:39.684Z,1008.47
2022-10-05T11:46:39.744Z,1008.32
2022-10-05T11:47:39.656Z,1008.34
2022-10-05T11:48:39.689Z,1008.27
2022-10-05T11:49:39.631Z,1008.25
2022-10-05T11:50:39.618Z,1008.28
2022-10-05T11:51:39.601Z,1008.26
2022-10-05T11:52:39.590Z,1008.21
2022-10-05T11:53:39.580Z,1008.14
2022-10-05T11:55:05.720Z,1008.18
2022-10-05T11:55:39.553Z,1008.23
2022-10-05T11:56:39.539Z,1008.13
2022-10-05T11:57:39.520Z,1008.13
2022-10-05T11:58:39.510Z,1008.10
2022-10-05T11:59:39.493Z,1008.11
2022-10-05T12:00:39.481Z,1008.08
2022-10-05T12:01:39.465Z,1008.08
2022-10-05T12:02:41.412Z,1007.98
2022-10-05T12:03:39.615Z,1007.97
2022-10-05T12:04:39.447Z,1007.94
2022-10-05T12:05:39.421Z,1007.99